« Back
NWS Peachtree City, Ga » Text Product » CSG Terminal Aerodrome Forecast


Printer-friendly Version
Current Version              Previous Versions:   1  2  3  4  5  6  7  8  9  

Terminal Aerodrome Forecast

719
FTUS42 KFFC 161100
TAFCSG
TAF
KCSG 161120Z 1612/1712 06008KT P6SM SKC
     FM161500 08009G16KT P6SM SCT250
     FM170000 10006KT P6SM SCT250=

USA.gov is the U.S. government's official web portal to all federal, state and local government web resources and services.